sensor_id;sensor_type;location;lat;lon;timestamp;temperature;humidity
14527;DHT22;7350;51.208;4.238;2023-02-24T00:01:41;17.30;99.90
14527;DHT22;7350;51.208;4.238;2023-02-24T00:04:10;17.40;99.90
14527;DHT22;7350;51.208;4.238;2023-02-24T00:06:40;17.40;99.90
14527;DHT22;7350;51.208;4.238;2023-02-24T00:09:11;17.30;99.90
14527;DHT22;7350;51.208;4.238;2023-02-24T00:11:41;17.30;99.90
14527;DHT22;7350;51.208;4.238;2023-02-24T00:14:13;17.20;99.90
14527;DHT22;7350;51.208;4.238;2023-02-24T00:16:42;17.20;99.90
14527;DHT22;7350;51.208;4.238;2023-02-24T00:19:11;17.10;99.90
14527;DHT22;7350;51.208;4.238;2023-02-24T00:21:39;17.10;99.90
14527;DHT22;7350;51.208;4.238;2023-02-24T00:24:06;17.20;99.90
14527;DHT22;7350;51.208;4.238;2023-02-24T00:26:33;17.10;99.90
14527;DHT22;7350;51.208;4.238;2023-02-24T00:29:03;17.20;99.90
14527;DHT22;7350;51.208;4.238;2023-02-24T00:31:32;17.10;99.90
14527;DHT22;7350;51.208;4.238;2023-02-24T00:34:00;17.10;99.90
14527;DHT22;7350;51.208;4.238;2023-02-24T00:36:29;17.10;99.90
14527;DHT22;7350;51.208;4.238;2023-02-24T00:39:00;17.10;99.90
14527;DHT22;7350;51.208;4.238;2023-02-24T00:41:30;17.10;99.90
14527;DHT22;7350;51.208;4.238;2023-02-24T00:43:59;17.10;99.90
14527;DHT22;7350;51.208;4.238;2023-02-24T00:46:33;17.10;99.90
14527;DHT22;7350;51.208;4.238;2023-02-24T00:49:02;17.10;99.90
14527;DHT22;7350;51.208;4.238;2023-02-24T00:51:33;17.00;99.90
14527;DHT22;7350;51.208;4.238;2023-02-24T00:54:01;17.00;99.90
14527;DHT22;7350;51.208;4.238;2023-02-24T00:56:30;16.90;99.90
14527;DHT22;7350;51.208;4.238;2023-02-24T00:58:59;16.90;99.90
14527;DHT22;7350;51.208;4.238;2023-02-24T01:01:28;16.90;99.90
14527;DHT22;7350;51.208;4.238;2023-02-24T01:03:57;16.80;99.90
14527;DHT22;7350;51.208;4.238;2023-02-24T01:06:27;16.80;99.90
14527;DHT22;7350;51.208;4.238;2023-02-24T01:08:55;16.80;99.90
14527;DHT22;7350;51.208;4.238;2023-02-24T01:11:25;16.80;99.90
14527;DHT22;7350;51.208;4.238;2023-02-24T01:14:13;16.80;99.90
14527;DHT22;7350;51.208;4.238;2023-02-24T01:16:41;16.80;99.90
14527;DHT22;7350;51.208;4.238;2023-02-24T01:19:10;16.80;99.90
14527;DHT22;7350;51.208;4.238;2023-02-24T01:21:37;16.70;99.90
14527;DHT22;7350;51.208;4.238;2023-02-24T01:24:05;16.80;99.90
14527;DHT22;7350;51.208;4.238;2023-02-24T01:26:32;16.70;99.90
14527;DHT22;7350;51.208;4.238;2023-02-24T01:28:59;16.70;99.90
14527;DHT22;7350;51.208;4.238;2023-02-24T01:31:26;16.70;99.90
14527;DHT22;7350;51.208;4.238;2023-02-24T01:33:53;16.70;99.90
14527;DHT22;7350;51.208;4.238;2023-02-24T01:36:24;16.70;99.90
14527;DHT22;7350;51.208;4.238;2023-02-24T01:38:52;16.70;99.90
14527;DHT22;7350;51.208;4.238;2023-02-24T01:41:21;16.70;99.90
14527;DHT22;7350;51.208;4.238;2023-02-24T01:43:58;16.70;99.90
14527;DHT22;7350;51.208;4.238;2023-02-24T01:46:27;16.70;99.90
14527;DHT22;7350;51.208;4.238;2023-02-24T01:48:57;16.70;99.90
14527;DHT22;7350;51.208;4.238;2023-02-24T01:51:29;16.70;99.90
14527;DHT22;7350;51.208;4.238;2023-02-24T01:53:57;16.70;99.90
14527;DHT22;7350;51.208;4.238;2023-02-24T01:56:24;16.80;99.90
14527;DHT22;7350;51.208;4.238;2023-02-24T01:58:54;16.80;99.90
14527;DHT22;7350;51.208;4.238;2023-02-24T02:01:22;16.80;99.90
14527;DHT22;7350;51.208;4.238;2023-02-24T02:03:49;16.70;99.90
14527;DHT22;7350;51.208;4.238;2023-02-24T02:06:17;16.80;99.90
14527;DHT22;7350;51.208;4.238;2023-02-24T02:08:45;16.80;99.90
14527;DHT22;7350;51.208;4.238;2023-02-24T02:11:15;16.80;99.90
14527;DHT22;7350;51.208;4.238;2023-02-24T02:13:47;16.80;99.90
14527;DHT22;7350;51.208;4.238;2023-02-24T02:16:47;16.80;99.90
14527;DHT22;7350;51.208;4.238;2023-02-24T02:22:39;16.80;99.90
14527;DHT22;7350;51.208;4.238;2023-02-24T02:25:14;16.70;99.90
14527;DHT22;7350;51.208;4.238;2023-02-24T02:28:18;16.70;99.90
14527;DHT22;7350;51.208;4.238;2023-02-24T02:31:04;16.70;99.90
14527;DHT22;7350;51.208;4.238;2023-02-24T02:34:15;16.60;99.90
14527;DHT22;7350;51.208;4.238;2023-02-24T02:36:53;16.60;99.90
14527;DHT22;7350;51.208;4.238;2023-02-24T02:39:28;16.60;99.90
14527;DHT22;7350;51.208;4.238;2023-02-24T02:42:04;16.60;99.90
14527;DHT22;7350;51.208;4.238;2023-02-24T02:44:48;16.60;99.90
14527;DHT22;7350;51.208;4.238;2023-02-24T02:47:24;16.60;99.90
14527;DHT22;7350;51.208;4.238;2023-02-24T02:49:55;16.60;99.90
14527;DHT22;7350;51.208;4.238;2023-02-24T02:52:27;16.60;99.90
14527;DHT22;7350;51.208;4.238;2023-02-24T02:55:00;16.60;99.90
14527;DHT22;7350;51.208;4.238;2023-02-24T02:57:30;16.50;99.90
14527;DHT22;7350;51.208;4.238;2023-02-24T03:00:02;16.50;99.90
14527;DHT22;7350;51.208;4.238;2023-02-24T03:02:36;16.50;99.90
14527;DHT22;7350;51.208;4.238;2023-02-24T03:05:09;16.50;99.90
14527;DHT22;7350;51.208;4.238;2023-02-24T03:07:40;16.50;99.90
14527;DHT22;7350;51.208;4.238;2023-02-24T03:10:11;16.50;99.90
14527;DHT22;7350;51.208;4.238;2023-02-24T03:12:48;16.50;99.90
14527;DHT22;7350;51.208;4.238;2023-02-24T03:15:18;16.40;99.90
14527;DHT22;7350;51.208;4.238;2023-02-24T03:17:50;16.50;99.90
14527;DHT22;7350;51.208;4.238;2023-02-24T03:20:23;16.60;99.90
14527;DHT22;7350;51.208;4.238;2023-02-24T03:22:57;16.50;99.90
14527;DHT22;7350;51.208;4.238;2023-02-24T03:25:28;16.50;99.90
14527;DHT22;7350;51.208;4.238;2023-02-24T03:28:02;16.50;99.90
14527;DHT22;7350;51.208;4.238;2023-02-24T03:30:39;16.40;99.90
14527;DHT22;7350;51.208;4.238;2023-02-24T03:33:14;16.50;99.90
14527;DHT22;7350;51.208;4.238;2023-02-24T03:35:44;16.50;99.90
14527;DHT22;7350;51.208;4.238;2023-02-24T03:38:11;16.50;99.90
14527;DHT22;7350;51.208;4.238;2023-02-24T03:40:40;16.50;99.90
14527;DHT22;7350;51.208;4.238;2023-02-24T03:43:13;16.40;99.90
14527;DHT22;7350;51.208;4.238;2023-02-24T03:45:42;16.40;99.90
14527;DHT22;7350;51.208;4.238;2023-02-24T03:48:11;16.50;99.90
14527;DHT22;7350;51.208;4.238;2023-02-24T03:50:39;16.40;99.90
14527;DHT22;7350;51.208;4.238;2023-02-24T03:53:18;16.50;99.90
14527;DHT22;7350;51.208;4.238;2023-02-24T03:56:00;16.50;99.90
14527;DHT22;7350;51.208;4.238;2023-02-24T03:58:37;16.40;99.90
14527;DHT22;7350;51.208;4.238;2023-02-24T04:01:10;16.40;99.90
14527;DHT22;7350;51.208;4.238;2023-02-24T04:03:46;16.40;99.90
14527;DHT22;7350;51.208;4.238;2023-02-24T04:06:19;16.40;99.90
14527;DHT22;7350;51.208;4.238;2023-02-24T04:08:51;16.50;99.90
14527;DHT22;7350;51.208;4.238;2023-02-24T04:11:24;16.50;99.90
14527;DHT22;7350;51.208;4.238;2023-02-24T04:13:57;16.50;99.90
14527;DHT22;7350;51.208;4.238;2023-02-24T04:16:30;16.50;99.90
14527;DHT22;7350;51.208;4.238;2023-02-24T04:19:05;16.50;99.90
14527;DHT22;7350;51.208;4.238;2023-02-24T04:21:34;16.50;99.90
14527;DHT22;7350;51.208;4.238;2023-02-24T04:24:06;16.50;99.90
14527;DHT22;7350;51.208;4.238;2023-02-24T04:26:37;16.60;99.90
14527;DHT22;7350;51.208;4.238;2023-02-24T04:29:06;16.60;99.90
14527;DHT22;7350;51.208;4.238;2023-02-24T04:31:34;16.70;99.90
14527;DHT22;7350;51.208;4.238;2023-02-24T04:34:03;16.70;99.90
14527;DHT22;7350;51.208;4.238;2023-02-24T04:36:33;16.70;99.90
14527;DHT22;7350;51.208;4.238;2023-02-24T04:39:04;16.70;99.90
14527;DHT22;7350;51.208;4.238;2023-02-24T04:41:32;16.70;99.90
14527;DHT22;7350;51.208;4.238;2023-02-24T04:44:00;16.80;99.90
14527;DHT22;7350;51.208;4.238;2023-02-24T04:46:27;16.80;99.90
14527;DHT22;7350;51.208;4.238;2023-02-24T04:48:56;16.80;99.90
14527;DHT22;7350;51.208;4.238;2023-02-24T04:51:24;16.90;99.90
14527;DHT22;7350;51.208;4.238;2023-02-24T04:53:56;16.90;99.90
14527;DHT22;7350;51.208;4.238;2023-02-24T04:56:24;16.90;99.90
14527;DHT22;7350;51.208;4.238;2023-02-24T04:58:53;17.00;99.90
14527;DHT22;7350;51.208;4.238;2023-02-24T05:01:20;17.10;99.90
14527;DHT22;7350;51.208;4.238;2023-02-24T05:03:47;17.30;99.90
14527;DHT22;7350;51.208;4.238;2023-02-24T05:06:16;17.50;99.90
14527;DHT22;7350;51.208;4.238;2023-02-24T05:08:43;17.60;99.90
14527;DHT22;7350;51.208;4.238;2023-02-24T05:11:12;17.60;99.90
14527;DHT22;7350;51.208;4.238;2023-02-24T05:13:42;17.70;99.90
14527;DHT22;7350;51.208;4.238;2023-02-24T05:16:12;17.80;99.90
14527;DHT22;7350;51.208;4.238;2023-02-24T05:18:39;17.80;99.90
14527;DHT22;7350;51.208;4.238;2023-02-24T05:21:09;17.80;99.90
14527;DHT22;7350;51.208;4.238;2023-02-24T05:23:55;17.90;99.90
14527;DHT22;7350;51.208;4.238;2023-02-24T05:26:24;17.90;99.90
14527;DHT22;7350;51.208;4.238;2023-02-24T05:28:54;18.00;99.90
14527;DHT22;7350;51.208;4.238;2023-02-24T05:31:25;18.00;99.90
14527;DHT22;7350;51.208;4.238;2023-02-24T05:33:55;18.00;99.90
14527;DHT22;7350;51.208;4.238;2023-02-24T05:36:24;18.00;99.90
14527;DHT22;7350;51.208;4.238;2023-02-24T05:38:54;18.00;99.90
14527;DHT22;7350;51.208;4.238;2023-02-24T05:41:26;18.00;99.90
14527;DHT22;7350;51.208;4.238;2023-02-24T05:43:59;18.00;99.90
14527;DHT22;7350;51.208;4.238;2023-02-24T05:46:31;18.00;99.90
14527;DHT22;7350;51.208;4.238;2023-02-24T05:49:00;18.00;99.90
14527;DHT22;7350;51.208;4.238;2023-02-24T05:51:29;18.10;99.90
14527;DHT22;7350;51.208;4.238;2023-02-24T05:54:00;18.10;99.90
14527;DHT22;7350;51.208;4.238;2023-02-24T05:56:30;18.00;99.90
14527;DHT22;7350;51.208;4.238;2023-02-24T05:59:00;18.10;99.90
14527;DHT22;7350;51.208;4.238;2023-02-24T06:01:28;18.00;99.90
14527;DHT22;7350;51.208;4.238;2023-02-24T06:03:59;18.00;99.90
14527;DHT22;7350;51.208;4.238;2023-02-24T06:06:31;18.00;99.90
14527;DHT22;7350;51.208;4.238;2023-02-24T06:09:00;18.00;99.90
14527;DHT22;7350;51.208;4.238;2023-02-24T06:11:32;18.00;99.90
14527;DHT22;7350;51.208;4.238;2023-02-24T06:14:01;18.00;99.90
14527;DHT22;7350;51.208;4.238;2023-02-24T06:16:32;18.00;99.90
14527;DHT22;7350;51.208;4.238;2023-02-24T06:18:59;18.00;99.90
14527;DHT22;7350;51.208;4.238;2023-02-24T06:21:26;18.00;99.90
14527;DHT22;7350;51.208;4.238;2023-02-24T06:23:54;17.90;99.90
14527;DHT22;7350;51.208;4.238;2023-02-24T06:26:22;17.90;99.90
14527;DHT22;7350;51.208;4.238;2023-02-24T06:28:51;17.90;99.90
14527;DHT22;7350;51.208;4.238;2023-02-24T06:31:21;17.90;99.90
14527;DHT22;7350;51.208;4.238;2023-02-24T06:33:48;17.90;99.90
14527;DHT22;7350;51.208;4.238;2023-02-24T06:36:18;17.90;99.90
14527;DHT22;7350;51.208;4.238;2023-02-24T06:38:45;17.90;99.90
14527;DHT22;7350;51.208;4.238;2023-02-24T06:41:14;17.90;99.90
14527;DHT22;7350;51.208;4.238;2023-02-24T06:43:42;17.90;99.90
14527;DHT22;7350;51.208;4.238;2023-02-24T06:46:11;17.90;99.90
14527;DHT22;7350;51.208;4.238;2023-02-24T06:48:39;17.90;99.90
14527;DHT22;7350;51.208;4.238;2023-02-24T06:51:08;17.80;99.90
14527;DHT22;7350;51.208;4.238;2023-02-24T06:53:38;17.80;99.90
14527;DHT22;7350;51.208;4.238;2023-02-24T06:56:09;17.80;99.90
14527;DHT22;7350;51.208;4.238;2023-02-24T06:58:40;17.80;99.90
14527;DHT22;7350;51.208;4.238;2023-02-24T07:01:09;17.80;99.90
14527;DHT22;7350;51.208;4.238;2023-02-24T07:03:36;17.80;99.90
14527;DHT22;7350;51.208;4.238;2023-02-24T07:06:13;17.80;99.90
14527;DHT22;7350;51.208;4.238;2023-02-24T07:08:51;17.80;99.90
14527;DHT22;7350;51.208;4.238;2023-02-24T07:11:19;17.80;99.90
14527;DHT22;7350;51.208;4.238;2023-02-24T07:13:47;17.80;99.90
14527;DHT22;7350;51.208;4.238;2023-02-24T07:16:15;17.80;99.90
14527;DHT22;7350;51.208;4.238;2023-02-24T07:18:42;17.80;99.90
14527;DHT22;7350;51.208;4.238;2023-02-24T07:21:15;17.80;99.90
14527;DHT22;7350;51.208;4.238;2023-02-24T07:23:44;17.80;99.90
14527;DHT22;7350;51.208;4.238;2023-02-24T07:26:15;17.70;99.90
14527;DHT22;7350;51.208;4.238;2023-02-24T07:28:44;17.70;99.90
14527;DHT22;7350;51.208;4.238;2023-02-24T07:31:13;17.70;99.90
14527;DHT22;7350;51.208;4.238;2023-02-24T07:33:42;17.60;99.90
14527;DHT22;7350;51.208;4.238;2023-02-24T07:36:11;17.60;99.90
14527;DHT22;7350;51.208;4.238;2023-02-24T07:38:42;17.60;99.90
14527;DHT22;7350;51.208;4.238;2023-02-24T07:41:11;17.60;99.90
14527;DHT22;7350;51.208;4.238;2023-02-24T07:43:41;17.50;99.90
14527;DHT22;7350;51.208;4.238;2023-02-24T07:46:10;17.40;99.90
14527;DHT22;7350;51.208;4.238;2023-02-24T07:48:37;17.40;99.90
14527;DHT22;7350;51.208;4.238;2023-02-24T07:51:06;17.40;99.90
14527;DHT22;7350;51.208;4.238;2023-02-24T07:53:33;17.40;99.90
14527;DHT22;7350;51.208;4.238;2023-02-24T07:56:05;17.50;99.90
14527;DHT22;7350;51.208;4.238;2023-02-24T07:58:35;17.50;99.90
14527;DHT22;7350;51.208;4.238;2023-02-24T08:01:06;17.60;99.90
14527;DHT22;7350;51.208;4.238;2023-02-24T08:03:42;17.60;99.90
14527;DHT22;7350;51.208;4.238;2023-02-24T08:06:09;17.70;99.90
14527;DHT22;7350;51.208;4.238;2023-02-24T08:08:41;17.70;99.90
14527;DHT22;7350;51.208;4.238;2023-02-24T08:11:26;17.80;99.90
14527;DHT22;7350;51.208;4.238;2023-02-24T08:14:00;17.80;99.90
14527;DHT22;7350;51.208;4.238;2023-02-24T08:16:28;17.80;99.90
14527;DHT22;7350;51.208;4.238;2023-02-24T08:19:04;17.90;99.90
14527;DHT22;7350;51.208;4.238;2023-02-24T08:21:31;17.80;99.90
14527;DHT22;7350;51.208;4.238;2023-02-24T08:24:14;17.80;99.90
14527;DHT22;7350;51.208;4.238;2023-02-24T08:26:46;17.90;99.90
14527;DHT22;7350;51.208;4.238;2023-02-24T08:29:28;18.00;99.90
14527;DHT22;7350;51.208;4.238;2023-02-24T08:31:56;18.00;99.90
14527;DHT22;7350;51.208;4.238;2023-02-24T08:34:23;18.00;99.90
14527;DHT22;7350;51.208;4.238;2023-02-24T08:36:56;18.00;99.90
14527;DHT22;7350;51.208;4.238;2023-02-24T08:39:23;18.00;99.90
14527;DHT22;7350;51.208;4.238;2023-02-24T08:41:56;18.10;99.90
14527;DHT22;7350;51.208;4.238;2023-02-24T08:44:24;18.10;99.90
14527;DHT22;7350;51.208;4.238;2023-02-24T08:46:52;18.10;99.90
14527;DHT22;7350;51.208;4.238;2023-02-24T08:49:21;18.10;99.90
14527;DHT22;7350;51.208;4.238;2023-02-24T08:51:50;18.10;99.90
14527;DHT22;7350;51.208;4.238;2023-02-24T08:54:20;18.00;99.90
14527;DHT22;7350;51.208;4.238;2023-02-24T08:56:52;18.10;99.90
14527;DHT22;7350;51.208;4.238;2023-02-24T08:59:24;18.00;99.90
14527;DHT22;7350;51.208;4.238;2023-02-24T09:02:05;18.00;99.90
14527;DHT22;7350;51.208;4.238;2023-02-24T09:04:50;18.10;99.90
14527;DHT22;7350;51.208;4.238;2023-02-24T09:07:19;18.10;99.90
14527;DHT22;7350;51.208;4.238;2023-02-24T09:09:47;18.10;99.90
14527;DHT22;7350;51.208;4.238;2023-02-24T09:12:14;18.10;99.90
14527;DHT22;7350;51.208;4.238;2023-02-24T09:14:51;18.10;99.90
14527;DHT22;7350;51.208;4.238;2023-02-24T09:17:22;18.10;99.90
14527;DHT22;7350;51.208;4.238;2023-02-24T09:20:07;18.20;99.90
14527;DHT22;7350;51.208;4.238;2023-02-24T09:23:03;18.20;99.90
14527;DHT22;7350;51.208;4.238;2023-02-24T09:25:33;18.10;99.90
14527;DHT22;7350;51.208;4.238;2023-02-24T09:28:10;18.10;99.90
14527;DHT22;7350;51.208;4.238;2023-02-24T09:30:44;18.10;99.90
14527;DHT22;7350;51.208;4.238;2023-02-24T09:33:23;18.00;99.90
14527;DHT22;7350;51.208;4.238;2023-02-24T09:35:55;18.10;99.90
14527;DHT22;7350;51.208;4.238;2023-02-24T09:38:34;18.10;99.90
14527;DHT22;7350;51.208;4.238;2023-02-24T09:41:26;18.20;99.90
14527;DHT22;7350;51.208;4.238;2023-02-24T09:43:59;18.20;99.90
14527;DHT22;7350;51.208;4.238;2023-02-24T09:46:35;18.10;99.90
14527;DHT22;7350;51.208;4.238;2023-02-24T09:49:12;18.20;99.90
14527;DHT22;7350;51.208;4.238;2023-02-24T09:51:42;18.10;99.90
14527;DHT22;7350;51.208;4.238;2023-02-24T09:54:19;18.20;99.90
14527;DHT22;7350;51.208;4.238;2023-02-24T09:56:55;18.30;99.90
14527;DHT22;7350;51.208;4.238;2023-02-24T09:59:39;18.30;99.90
14527;DHT22;7350;51.208;4.238;2023-02-24T10:02:32;18.30;99.90
14527;DHT22;7350;51.208;4.238;2023-02-24T10:05:17;18.40;99.90
14527;DHT22;7350;51.208;4.238;2023-02-24T10:07:48;18.30;99.90
14527;DHT22;7350;51.208;4.238;2023-02-24T10:10:19;18.30;99.90
14527;DHT22;7350;51.208;4.238;2023-02-24T10:12:56;18.40;99.90
14527;DHT22;7350;51.208;4.238;2023-02-24T10:15:27;18.40;99.90
14527;DHT22;7350;51.208;4.238;2023-02-24T10:18:30;18.40;99.90
14527;DHT22;7350;51.208;4.238;2023-02-24T10:21:05;18.30;99.90
14527;DHT22;7350;51.208;4.238;2023-02-24T10:23:47;18.40;99.90
14527;DHT22;7350;51.208;4.238;2023-02-24T10:26:25;18.40;99.90
14527;DHT22;7350;51.208;4.238;2023-02-24T10:29:02;18.40;99.90
14527;DHT22;7350;51.208;4.238;2023-02-24T10:31:38;18.40;99.90
14527;DHT22;7350;51.208;4.238;2023-02-24T10:34:10;18.40;99.90
14527;DHT22;7350;51.208;4.238;2023-02-24T10:36:45;18.40;99.90
14527;DHT22;7350;51.208;4.238;2023-02-24T10:39:17;18.40;99.90
14527;DHT22;7350;51.208;4.238;2023-02-24T10:41:51;18.40;99.90
14527;DHT22;7350;51.208;4.238;2023-02-24T10:44:23;18.40;99.90
14527;DHT22;7350;51.208;4.238;2023-02-24T10:47:03;18.40;99.90
14527;DHT22;7350;51.208;4.238;2023-02-24T10:49:44;18.50;99.90
14527;DHT22;7350;51.208;4.238;2023-02-24T10:52:23;18.50;99.90
14527;DHT22;7350;51.208;4.238;2023-02-24T10:55:22;18.50;99.90
14527;DHT22;7350;51.208;4.238;2023-02-24T10:58:20;18.40;99.90
14527;DHT22;7350;51.208;4.238;2023-02-24T11:00:54;18.40;99.90
14527;DHT22;7350;51.208;4.238;2023-02-24T11:03:38;18.40;99.90
14527;DHT22;7350;51.208;4.238;2023-02-24T11:06:20;18.40;99.90
14527;DHT22;7350;51.208;4.238;2023-02-24T11:09:14;18.50;99.90
14527;DHT22;7350;51.208;4.238;2023-02-24T11:11:58;18.50;99.90
14527;DHT22;7350;51.208;4.238;2023-02-24T11:14:48;18.50;99.90
14527;DHT22;7350;51.208;4.238;2023-02-24T11:17:44;18.50;99.90
14527;DHT22;7350;51.208;4.238;2023-02-24T11:20:22;18.60;99.90
14527;DHT22;7350;51.208;4.238;2023-02-24T11:22:51;18.60;99.90
14527;DHT22;7350;51.208;4.238;2023-02-24T11:25:23;18.60;99.90
14527;DHT22;7350;51.208;4.238;2023-02-24T11:27:52;18.60;99.90
14527;DHT22;7350;51.208;4.238;2023-02-24T11:30:25;18.60;99.90
14527;DHT22;7350;51.208;4.238;2023-02-24T11:33:11;18.60;99.90
14527;DHT22;7350;51.208;4.238;2023-02-24T11:35:47;18.60;99.90
14527;DHT22;7350;51.208;4.238;2023-02-24T11:38:26;18.60;99.90
14527;DHT22;7350;51.208;4.238;2023-02-24T11:41:02;18.60;99.90
14527;DHT22;7350;51.208;4.238;2023-02-24T11:43:33;18.60;99.90
14527;DHT22;7350;51.208;4.238;2023-02-24T11:46:06;18.60;99.90
14527;DHT22;7350;51.208;4.238;2023-02-24T11:48:37;18.60;99.90
14527;DHT22;7350;51.208;4.238;2023-02-24T11:51:09;18.70;99.90
14527;DHT22;7350;51.208;4.238;2023-02-24T11:53:44;18.60;99.90
14527;DHT22;7350;51.208;4.238;2023-02-24T11:56:20;18.60;99.90
14527;DHT22;7350;51.208;4.238;2023-02-24T11:58:51;18.70;99.90
14527;DHT22;7350;51.208;4.238;2023-02-24T12:01:25;18.70;99.90
14527;DHT22;7350;51.208;4.238;2023-02-24T12:04:02;18.70;99.90
14527;DHT22;7350;51.208;4.238;2023-02-24T12:06:37;18.60;99.90
14527;DHT22;7350;51.208;4.238;2023-02-24T12:09:12;18.70;99.90
14527;DHT22;7350;51.208;4.238;2023-02-24T12:11:47;18.70;99.90
14527;DHT22;7350;51.208;4.238;2023-02-24T12:14:23;18.70;99.90
14527;DHT22;7350;51.208;4.238;2023-02-24T12:16:59;18.70;99.90
14527;DHT22;7350;51.208;4.238;2023-02-24T12:19:32;18.70;99.90
14527;DHT22;7350;51.208;4.238;2023-02-24T12:22:06;18.60;99.90
14527;DHT22;7350;51.208;4.238;2023-02-24T12:24:40;18.60;99.90
14527;DHT22;7350;51.208;4.238;2023-02-24T12:27:16;18.60;99.90
14527;DHT22;7350;51.208;4.238;2023-02-24T12:30:06;18.70;99.90
14527;DHT22;7350;51.208;4.238;2023-02-24T12:32:57;18.70;99.90
14527;DHT22;7350;51.208;4.238;2023-02-24T12:35:32;18.70;99.90
14527;DHT22;7350;51.208;4.238;2023-02-24T12:38:22;18.60;99.90
14527;DHT22;7350;51.208;4.238;2023-02-24T12:41:02;18.60;99.90
14527;DHT22;7350;51.208;4.238;2023-02-24T12:43:37;18.70;99.90
14527;DHT22;7350;51.208;4.238;2023-02-24T12:46:19;18.70;99.90
14527;DHT22;7350;51.208;4.238;2023-02-24T12:51:51;18.70;99.90
14527;DHT22;7350;51.208;4.238;2023-02-24T12:54:23;18.70;99.90
14527;DHT22;7350;51.208;4.238;2023-02-24T12:57:00;18.70;99.90
14527;DHT22;7350;51.208;4.238;2023-02-24T12:59:33;18.60;99.90
14527;DHT22;7350;51.208;4.238;2023-02-24T13:02:06;18.70;99.90
14527;DHT22;7350;51.208;4.238;2023-02-24T13:04:41;18.70;99.90
14527;DHT22;7350;51.208;4.238;2023-02-24T13:07:21;18.60;99.90
14527;DHT22;7350;51.208;4.238;2023-02-24T13:10:02;18.60;99.90
14527;DHT22;7350;51.208;4.238;2023-02-24T13:12:37;18.60;99.90
14527;DHT22;7350;51.208;4.238;2023-02-24T13:15:18;18.60;99.90
14527;DHT22;7350;51.208;4.238;2023-02-24T13:17:47;18.60;99.90
14527;DHT22;7350;51.208;4.238;2023-02-24T13:20:27;18.60;99.90
14527;DHT22;7350;51.208;4.238;2023-02-24T13:22:55;18.60;99.90
14527;DHT22;7350;51.208;4.238;2023-02-24T13:25:28;18.70;99.90
14527;DHT22;7350;51.208;4.238;2023-02-24T13:27:59;18.70;99.90
14527;DHT22;7350;51.208;4.238;2023-02-24T13:30:34;18.60;99.90
14527;DHT22;7350;51.208;4.238;2023-02-24T13:33:06;18.70;99.90
14527;DHT22;7350;51.208;4.238;2023-02-24T13:35:46;18.70;99.90
14527;DHT22;7350;51.208;4.238;2023-02-24T13:38:26;18.70;99.90
14527;DHT22;7350;51.208;4.238;2023-02-24T13:41:06;18.70;99.90
14527;DHT22;7350;51.208;4.238;2023-02-24T13:43:35;18.70;99.90
14527;DHT22;7350;51.208;4.238;2023-02-24T13:46:16;18.70;99.90
14527;DHT22;7350;51.208;4.238;2023-02-24T13:48:58;18.70;99.90
14527;DHT22;7350;51.208;4.238;2023-02-24T13:51:53;18.70;99.90
14527;DHT22;7350;51.208;4.238;2023-02-24T14:00:32;18.70;99.90
14527;DHT22;7350;51.208;4.238;2023-02-24T14:03:09;18.70;99.90
14527;DHT22;7350;51.208;4.238;2023-02-24T14:05:40;18.70;99.90
14527;DHT22;7350;51.208;4.238;2023-02-24T14:08:18;18.70;99.90
14527;DHT22;7350;51.208;4.238;2023-02-24T14:10:50;18.80;99.90
14527;DHT22;7350;51.208;4.238;2023-02-24T14:13:22;18.70;99.90
14527;DHT22;7350;51.208;4.238;2023-02-24T14:15:54;18.70;99.90
14527;DHT22;7350;51.208;4.238;2023-02-24T14:18:23;18.80;99.90
14527;DHT22;7350;51.208;4.238;2023-02-24T14:20:52;18.70;99.90
14527;DHT22;7350;51.208;4.238;2023-02-24T14:23:21;18.80;99.90
14527;DHT22;7350;51.208;4.238;2023-02-24T14:25:53;18.70;99.90
14527;DHT22;7350;51.208;4.238;2023-02-24T14:28:24;18.80;99.90
14527;DHT22;7350;51.208;4.238;2023-02-24T14:30:55;18.80;99.90
14527;DHT22;7350;51.208;4.238;2023-02-24T14:33:28;18.80;99.90
14527;DHT22;7350;51.208;4.238;2023-02-24T14:35:55;18.80;99.90
14527;DHT22;7350;51.208;4.238;2023-02-24T14:38:32;18.80;99.90
14527;DHT22;7350;51.208;4.238;2023-02-24T14:41:00;18.70;99.90
14527;DHT22;7350;51.208;4.238;2023-02-24T14:43:28;18.70;99.90
14527;DHT22;7350;51.208;4.238;2023-02-24T14:45:56;18.80;99.90
14527;DHT22;7350;51.208;4.238;2023-02-24T14:48:25;18.70;99.90
14527;DHT22;7350;51.208;4.238;2023-02-24T14:50:54;18.70;99.90
14527;DHT22;7350;51.208;4.238;2023-02-24T14:53:24;18.70;99.90
14527;DHT22;7350;51.208;4.238;2023-02-24T14:55:54;18.80;99.90
14527;DHT22;7350;51.208;4.238;2023-02-24T14:58:25;18.80;99.90
14527;DHT22;7350;51.208;4.238;2023-02-24T15:00:58;18.80;99.90
14527;DHT22;7350;51.208;4.238;2023-02-24T15:03:29;18.80;99.90
14527;DHT22;7350;51.208;4.238;2023-02-24T15:05:58;18.80;99.90
14527;DHT22;7350;51.208;4.238;2023-02-24T15:08:30;18.80;99.90
14527;DHT22;7350;51.208;4.238;2023-02-24T15:10:59;18.80;99.90
14527;DHT22;7350;51.208;4.238;2023-02-24T15:13:33;18.80;99.90
14527;DHT22;7350;51.208;4.238;2023-02-24T15:16:09;18.80;99.90
14527;DHT22;7350;51.208;4.238;2023-02-24T15:18:38;18.90;99.90
14527;DHT22;7350;51.208;4.238;2023-02-24T15:21:07;18.90;99.90
14527;DHT22;7350;51.208;4.238;2023-02-24T15:23:43;18.80;99.90
14527;DHT22;7350;51.208;4.238;2023-02-24T15:26:24;18.90;99.90
14527;DHT22;7350;51.208;4.238;2023-02-24T15:28:56;18.90;99.90
14527;DHT22;7350;51.208;4.238;2023-02-24T15:31:25;18.90;99.90
14527;DHT22;7350;51.208;4.238;2023-02-24T15:33:55;18.90;99.90
14527;DHT22;7350;51.208;4.238;2023-02-24T15:36:26;18.90;99.90
14527;DHT22;7350;51.208;4.238;2023-02-24T15:38:57;18.90;99.90
14527;DHT22;7350;51.208;4.238;2023-02-24T15:41:25;18.90;99.90
14527;DHT22;7350;51.208;4.238;2023-02-24T15:44:03;18.90;99.90
14527;DHT22;7350;51.208;4.238;2023-02-24T15:46:33;19.00;99.90
14527;DHT22;7350;51.208;4.238;2023-02-24T15:49:00;18.90;99.90
14527;DHT22;7350;51.208;4.238;2023-02-24T15:51:33;19.00;99.90
14527;DHT22;7350;51.208;4.238;2023-02-24T15:54:02;19.00;99.90
14527;DHT22;7350;51.208;4.238;2023-02-24T15:56:31;19.00;99.90
14527;DHT22;7350;51.208;4.238;2023-02-24T15:58:59;18.90;99.90
14527;DHT22;7350;51.208;4.238;2023-02-24T16:01:27;18.90;99.90
14527;DHT22;7350;51.208;4.238;2023-02-24T16:03:55;18.90;99.90
14527;DHT22;7350;51.208;4.238;2023-02-24T16:06:23;18.90;99.90
14527;DHT22;7350;51.208;4.238;2023-02-24T16:08:51;18.90;99.90
14527;DHT22;7350;51.208;4.238;2023-02-24T16:11:21;18.90;99.90
14527;DHT22;7350;51.208;4.238;2023-02-24T16:13:52;18.80;99.90
14527;DHT22;7350;51.208;4.238;2023-02-24T16:16:20;18.80;99.90
14527;DHT22;7350;51.208;4.238;2023-02-24T16:18:47;18.80;99.90
14527;DHT22;7350;51.208;4.238;2023-02-24T16:21:16;18.90;99.90
14527;DHT22;7350;51.208;4.238;2023-02-24T16:23:43;18.80;99.90
14527;DHT22;7350;51.208;4.238;2023-02-24T16:26:14;18.80;99.90
14527;DHT22;7350;51.208;4.238;2023-02-24T16:28:42;18.80;99.90
14527;DHT22;7350;51.208;4.238;2023-02-24T16:31:09;18.80;99.90
14527;DHT22;7350;51.208;4.238;2023-02-24T16:33:36;18.70;99.90